Flight Briefing for CPX364

Departure Arrival
Fort Worth Alliance Airport (KAFW)
Click to view FAA NOTAMS
March Air Reserve Base (KRIV)
Click to view FAA NOTAMS
Departure Time Arrival Time
N/A N/A
Aircraft Distance
B767-300BDSF 1001nm
Departure METAR Arrival METAR
KAFW 271136Z 17018G22KT 7SM SCT025 SCT190 BKN300 23/19 A2992 RMK AO2 T02330189 KRIV 271107Z AUTO 00000KT 10SM FEW012 05/05 A2995 RMK AO2 SLP143
Suggested Route
SWABR5 DOSXX INK V94 TFD J169 TRM ARKOE1


View recent IFR Routes data
Notes



Charts and Procedures

Charts for KAFW
No chart available
Charts for KRIV
No chart available

Windy.com Weather Map